sensor_id;sensor_type;location;lat;lon;timestamp;P1;durP1;ratioP1;P2;durP2;ratioP2
41683;SDS011;27369;52.030;4.586;2022-11-18T00:00:49;4.43;;;2.05;;
41683;SDS011;27369;52.030;4.586;2022-11-18T00:03:15;4.80;;;1.92;;
41683;SDS011;27369;52.030;4.586;2022-11-18T00:05:41;5.90;;;2.47;;
41683;SDS011;27369;52.030;4.586;2022-11-18T00:08:07;6.05;;;2.22;;
41683;SDS011;27369;52.030;4.586;2022-11-18T00:10:32;4.35;;;1.75;;
41683;SDS011;27369;52.030;4.586;2022-11-18T00:12:58;5.68;;;2.30;;
41683;SDS011;27369;52.030;4.586;2022-11-18T00:15:41;4.88;;;2.15;;
41683;SDS011;27369;52.030;4.586;2022-11-18T00:18:07;3.28;;;2.35;;
41683;SDS011;27369;52.030;4.586;2022-11-18T00:20:33;5.78;;;2.50;;
41683;SDS011;27369;52.030;4.586;2022-11-18T00:22:58;7.13;;;2.35;;
41683;SDS011;27369;52.030;4.586;2022-11-18T00:25:24;6.37;;;2.43;;
41683;SDS011;27369;52.030;4.586;2022-11-18T00:27:49;5.72;;;2.72;;
41683;SDS011;27369;52.030;4.586;2022-11-18T00:30:15;4.32;;;2.17;;
41683;SDS011;27369;52.030;4.586;2022-11-18T00:32:41;3.65;;;2.10;;
41683;SDS011;27369;52.030;4.586;2022-11-18T00:35:06;5.43;;;2.60;;
41683;SDS011;27369;52.030;4.586;2022-11-18T00:37:32;7.10;;;2.70;;
41683;SDS011;27369;52.030;4.586;2022-11-18T00:39:57;3.70;;;2.17;;
41683;SDS011;27369;52.030;4.586;2022-11-18T00:42:23;5.15;;;2.50;;
41683;SDS011;27369;52.030;4.586;2022-11-18T00:45:06;5.68;;;2.90;;
41683;SDS011;27369;52.030;4.586;2022-11-18T00:47:32;4.63;;;2.63;;
41683;SDS011;27369;52.030;4.586;2022-11-18T00:49:57;6.80;;;3.17;;
41683;SDS011;27369;52.030;4.586;2022-11-18T00:52:23;4.72;;;2.72;;
41683;SDS011;27369;52.030;4.586;2022-11-18T00:54:48;9.20;;;3.17;;
41683;SDS011;27369;52.030;4.586;2022-11-18T00:57:13;6.85;;;3.15;;
41683;SDS011;27369;52.030;4.586;2022-11-18T00:59:39;6.93;;;2.95;;
41683;SDS011;27369;52.030;4.586;2022-11-18T01:02:04;5.07;;;3.05;;
41683;SDS011;27369;52.030;4.586;2022-11-18T01:04:30;4.45;;;2.80;;
41683;SDS011;27369;52.030;4.586;2022-11-18T01:06:55;4.97;;;3.17;;
41683;SDS011;27369;52.030;4.586;2022-11-18T01:09:20;4.75;;;3.40;;
41683;SDS011;27369;52.030;4.586;2022-11-18T01:11:46;5.75;;;3.47;;
41683;SDS011;27369;52.030;4.586;2022-11-18T01:14:30;6.45;;;3.58;;
41683;SDS011;27369;52.030;4.586;2022-11-18T01:16:55;6.03;;;3.50;;
41683;SDS011;27369;52.030;4.586;2022-11-18T01:19:21;6.05;;;3.72;;
41683;SDS011;27369;52.030;4.586;2022-11-18T01:24:13;5.23;;;3.37;;
41683;SDS011;27369;52.030;4.586;2022-11-18T01:26:39;5.13;;;3.70;;
41683;SDS011;27369;52.030;4.586;2022-11-18T01:29:04;7.88;;;4.25;;
41683;SDS011;27369;52.030;4.586;2022-11-18T01:31:30;7.03;;;3.90;;
41683;SDS011;27369;52.030;4.586;2022-11-18T01:33:55;10.80;;;4.20;;
41683;SDS011;27369;52.030;4.586;2022-11-18T01:36:24;8.48;;;3.97;;
41683;SDS011;27369;52.030;4.586;2022-11-18T01:38:51;5.82;;;4.07;;
41683;SDS011;27369;52.030;4.586;2022-11-18T01:41:18;6.28;;;4.25;;
41683;SDS011;27369;52.030;4.586;2022-11-18T01:46:12;6.78;;;3.85;;
41683;SDS011;27369;52.030;4.586;2022-11-18T01:48:38;7.85;;;4.47;;
41683;SDS011;27369;52.030;4.586;2022-11-18T01:51:05;9.13;;;4.78;;
41683;SDS011;27369;52.030;4.586;2022-11-18T01:53:41;7.03;;;4.90;;
41683;SDS011;27369;52.030;4.586;2022-11-18T01:56:13;8.13;;;4.95;;
41683;SDS011;27369;52.030;4.586;2022-11-18T01:59:04;8.55;;;5.07;;
41683;SDS011;27369;52.030;4.586;2022-11-18T02:01:29;7.05;;;5.05;;
41683;SDS011;27369;52.030;4.586;2022-11-18T02:03:54;11.20;;;5.60;;
41683;SDS011;27369;52.030;4.586;2022-11-18T02:06:20;6.30;;;4.90;;
41683;SDS011;27369;52.030;4.586;2022-11-18T02:08:45;9.93;;;5.43;;
41683;SDS011;27369;52.030;4.586;2022-11-18T02:11:12;11.77;;;5.45;;
41683;SDS011;27369;52.030;4.586;2022-11-18T02:13:58;7.03;;;4.85;;
41683;SDS011;27369;52.030;4.586;2022-11-18T02:16:30;9.25;;;5.43;;
41683;SDS011;27369;52.030;4.586;2022-11-18T02:19:20;11.05;;;5.32;;
41683;SDS011;27369;52.030;4.586;2022-11-18T02:31:01;10.00;;;5.65;;
41683;SDS011;27369;52.030;4.586;2022-11-18T02:33:50;10.52;;;5.82;;
41683;SDS011;27369;52.030;4.586;2022-11-18T02:36:20;11.77;;;5.95;;
41683;SDS011;27369;52.030;4.586;2022-11-18T02:38:53;10.13;;;6.20;;
41683;SDS011;27369;52.030;4.586;2022-11-18T02:41:24;10.57;;;5.90;;
41683;SDS011;27369;52.030;4.586;2022-11-18T02:43:53;9.93;;;6.03;;
41683;SDS011;27369;52.030;4.586;2022-11-18T02:46:24;11.27;;;5.85;;
41683;SDS011;27369;52.030;4.586;2022-11-18T02:48:54;13.57;;;6.15;;
41683;SDS011;27369;52.030;4.586;2022-11-18T02:51:24;11.50;;;5.57;;
41683;SDS011;27369;52.030;4.586;2022-11-18T02:53:53;15.05;;;6.38;;
41683;SDS011;27369;52.030;4.586;2022-11-18T02:56:22;10.13;;;6.00;;
41683;SDS011;27369;52.030;4.586;2022-11-18T02:58:51;8.75;;;5.50;;
41683;SDS011;27369;52.030;4.586;2022-11-18T03:01:21;12.23;;;7.80;;
41683;SDS011;27369;52.030;4.586;2022-11-18T03:03:49;11.75;;;6.30;;
41683;SDS011;27369;52.030;4.586;2022-11-18T03:09:05;14.10;;;6.32;;
41683;SDS011;27369;52.030;4.586;2022-11-18T03:11:35;12.63;;;6.32;;
41683;SDS011;27369;52.030;4.586;2022-11-18T03:17:03;11.85;;;6.57;;
41683;SDS011;27369;52.030;4.586;2022-11-18T03:25:37;8.98;;;6.25;;
41683;SDS011;27369;52.030;4.586;2022-11-18T03:28:25;8.50;;;5.80;;
41683;SDS011;27369;52.030;4.586;2022-11-18T03:33:47;9.43;;;6.35;;
41683;SDS011;27369;52.030;4.586;2022-11-18T03:36:17;10.27;;;6.40;;
41683;SDS011;27369;52.030;4.586;2022-11-18T03:38:48;12.65;;;6.78;;
41683;SDS011;27369;52.030;4.586;2022-11-18T03:41:17;13.32;;;6.63;;
41683;SDS011;27369;52.030;4.586;2022-11-18T03:43:49;12.93;;;7.70;;
41683;SDS011;27369;52.030;4.586;2022-11-18T03:46:22;11.52;;;7.38;;
41683;SDS011;27369;52.030;4.586;2022-11-18T03:48:56;11.00;;;7.68;;
41683;SDS011;27369;52.030;4.586;2022-11-18T03:51:34;12.82;;;7.53;;
41683;SDS011;27369;52.030;4.586;2022-11-18T03:54:15;13.90;;;7.25;;
41683;SDS011;27369;52.030;4.586;2022-11-18T03:56:46;12.27;;;7.05;;
41683;SDS011;27369;52.030;4.586;2022-11-18T03:59:31;16.30;;;7.40;;
41683;SDS011;27369;52.030;4.586;2022-11-18T04:02:05;11.25;;;7.00;;
41683;SDS011;27369;52.030;4.586;2022-11-18T04:04:37;10.35;;;7.32;;
41683;SDS011;27369;52.030;4.586;2022-11-18T04:09:56;14.52;;;6.97;;
41683;SDS011;27369;52.030;4.586;2022-11-18T04:12:37;12.65;;;7.53;;
41683;SDS011;27369;52.030;4.586;2022-11-18T04:15:08;11.15;;;7.50;;
41683;SDS011;27369;52.030;4.586;2022-11-18T04:20:00;14.93;;;7.10;;
41683;SDS011;27369;52.030;4.586;2022-11-18T04:22:25;13.13;;;8.35;;
41683;SDS011;27369;52.030;4.586;2022-11-18T04:24:50;11.25;;;7.10;;
41683;SDS011;27369;52.030;4.586;2022-11-18T04:27:16;9.68;;;6.82;;
41683;SDS011;27369;52.030;4.586;2022-11-18T04:29:42;10.20;;;7.38;;
41683;SDS011;27369;52.030;4.586;2022-11-18T04:32:07;12.68;;;8.15;;
41683;SDS011;27369;52.030;4.586;2022-11-18T04:34:32;15.93;;;7.40;;
41683;SDS011;27369;52.030;4.586;2022-11-18T04:36:58;14.48;;;7.93;;
41683;SDS011;27369;52.030;4.586;2022-11-18T04:39:23;13.50;;;7.95;;
41683;SDS011;27369;52.030;4.586;2022-11-18T04:41:49;12.40;;;7.93;;
41683;SDS011;27369;52.030;4.586;2022-11-18T04:44:24;13.10;;;7.60;;
41683;SDS011;27369;52.030;4.586;2022-11-18T04:46:54;14.63;;;8.23;;
41683;SDS011;27369;52.030;4.586;2022-11-18T04:49:21;13.23;;;7.53;;
41683;SDS011;27369;52.030;4.586;2022-11-18T04:51:48;11.93;;;7.63;;
41683;SDS011;27369;52.030;4.586;2022-11-18T04:54:14;14.65;;;8.18;;
41683;SDS011;27369;52.030;4.586;2022-11-18T04:56:39;16.73;;;8.23;;
41683;SDS011;27369;52.030;4.586;2022-11-18T04:59:06;12.00;;;8.05;;
41683;SDS011;27369;52.030;4.586;2022-11-18T05:01:32;11.95;;;7.53;;
41683;SDS011;27369;52.030;4.586;2022-11-18T05:04:01;12.57;;;7.68;;
41683;SDS011;27369;52.030;4.586;2022-11-18T05:06:28;13.68;;;8.13;;
41683;SDS011;27369;52.030;4.586;2022-11-18T05:08:55;14.18;;;7.80;;
41683;SDS011;27369;52.030;4.586;2022-11-18T05:11:25;11.55;;;7.57;;
41683;SDS011;27369;52.030;4.586;2022-11-18T05:14:11;15.52;;;7.88;;
41683;SDS011;27369;52.030;4.586;2022-11-18T05:19:03;14.73;;;7.90;;
41683;SDS011;27369;52.030;4.586;2022-11-18T05:21:29;10.95;;;6.75;;
41683;SDS011;27369;52.030;4.586;2022-11-18T05:23:55;13.50;;;7.43;;
41683;SDS011;27369;52.030;4.586;2022-11-18T05:26:20;13.45;;;7.72;;
41683;SDS011;27369;52.030;4.586;2022-11-18T05:28:46;11.90;;;7.45;;
41683;SDS011;27369;52.030;4.586;2022-11-18T05:31:12;13.17;;;8.10;;
41683;SDS011;27369;52.030;4.586;2022-11-18T05:33:40;15.73;;;8.25;;
41683;SDS011;27369;52.030;4.586;2022-11-18T05:36:07;14.30;;;7.60;;
41683;SDS011;27369;52.030;4.586;2022-11-18T05:38:35;12.35;;;7.47;;
41683;SDS011;27369;52.030;4.586;2022-11-18T05:41:01;16.02;;;7.28;;
41683;SDS011;27369;52.030;4.586;2022-11-18T05:43:27;11.70;;;7.00;;
41683;SDS011;27369;52.030;4.586;2022-11-18T05:45:54;18.10;;;7.80;;
41683;SDS011;27369;52.030;4.586;2022-11-18T05:48:19;19.48;;;8.15;;
41683;SDS011;27369;52.030;4.586;2022-11-18T05:50:46;12.38;;;6.80;;
41683;SDS011;27369;52.030;4.586;2022-11-18T05:53:14;13.98;;;8.52;;
41683;SDS011;27369;52.030;4.586;2022-11-18T05:58:08;11.32;;;6.85;;
41683;SDS011;27369;52.030;4.586;2022-11-18T06:00:34;12.77;;;7.43;;
41683;SDS011;27369;52.030;4.586;2022-11-18T06:03:00;15.80;;;8.10;;
41683;SDS011;27369;52.030;4.586;2022-11-18T06:05:26;17.33;;;7.88;;
41683;SDS011;27369;52.030;4.586;2022-11-18T06:07:52;12.00;;;6.85;;
41683;SDS011;27369;52.030;4.586;2022-11-18T06:10:21;12.60;;;7.63;;
41683;SDS011;27369;52.030;4.586;2022-11-18T06:12:51;14.55;;;7.38;;
41683;SDS011;27369;52.030;4.586;2022-11-18T06:15:26;16.48;;;7.18;;
41683;SDS011;27369;52.030;4.586;2022-11-18T06:17:59;15.45;;;7.57;;
41683;SDS011;27369;52.030;4.586;2022-11-18T06:20:28;15.55;;;7.50;;
41683;SDS011;27369;52.030;4.586;2022-11-18T06:22:55;12.07;;;7.13;;
41683;SDS011;27369;52.030;4.586;2022-11-18T06:25:22;16.95;;;7.40;;
41683;SDS011;27369;52.030;4.586;2022-11-18T06:27:48;13.98;;;7.60;;
41683;SDS011;27369;52.030;4.586;2022-11-18T06:30:15;12.50;;;7.47;;
41683;SDS011;27369;52.030;4.586;2022-11-18T06:32:41;14.25;;;7.68;;
41683;SDS011;27369;52.030;4.586;2022-11-18T06:35:06;13.50;;;7.60;;
41683;SDS011;27369;52.030;4.586;2022-11-18T06:37:33;15.20;;;6.90;;
41683;SDS011;27369;52.030;4.586;2022-11-18T06:39:59;12.85;;;7.65;;
41683;SDS011;27369;52.030;4.586;2022-11-18T06:42:26;20.20;;;7.65;;
41683;SDS011;27369;52.030;4.586;2022-11-18T06:45:11;15.20;;;7.50;;
41683;SDS011;27369;52.030;4.586;2022-11-18T06:47:36;10.98;;;7.38;;
41683;SDS011;27369;52.030;4.586;2022-11-18T06:50:02;15.77;;;7.10;;
41683;SDS011;27369;52.030;4.586;2022-11-18T06:52:28;18.92;;;7.80;;
41683;SDS011;27369;52.030;4.586;2022-11-18T06:54:53;16.25;;;7.05;;
41683;SDS011;27369;52.030;4.586;2022-11-18T06:57:18;16.45;;;7.95;;
41683;SDS011;27369;52.030;4.586;2022-11-18T06:59:44;12.45;;;7.43;;
41683;SDS011;27369;52.030;4.586;2022-11-18T07:02:09;15.55;;;7.78;;
41683;SDS011;27369;52.030;4.586;2022-11-18T07:04:35;11.95;;;7.50;;
41683;SDS011;27369;52.030;4.586;2022-11-18T07:07:04;18.13;;;7.45;;
41683;SDS011;27369;52.030;4.586;2022-11-18T07:11:55;12.77;;;7.40;;
41683;SDS011;27369;52.030;4.586;2022-11-18T07:14:20;13.85;;;7.30;;
41683;SDS011;27369;52.030;4.586;2022-11-18T07:16:46;12.73;;;7.97;;
41683;SDS011;27369;52.030;4.586;2022-11-18T07:19:12;13.75;;;7.38;;
41683;SDS011;27369;52.030;4.586;2022-11-18T07:21:38;17.15;;;7.22;;
41683;SDS011;27369;52.030;4.586;2022-11-18T07:24:05;14.13;;;7.40;;
41683;SDS011;27369;52.030;4.586;2022-11-18T07:26:33;13.65;;;7.57;;
41683;SDS011;27369;52.030;4.586;2022-11-18T07:31:24;13.90;;;8.20;;
41683;SDS011;27369;52.030;4.586;2022-11-18T07:33:50;14.85;;;7.20;;
41683;SDS011;27369;52.030;4.586;2022-11-18T07:36:19;22.98;;;6.97;;
41683;SDS011;27369;52.030;4.586;2022-11-18T07:38:47;12.32;;;6.32;;
41683;SDS011;27369;52.030;4.586;2022-11-18T07:41:14;16.17;;;6.97;;
41683;SDS011;27369;52.030;4.586;2022-11-18T07:43:39;12.40;;;6.35;;
41683;SDS011;27369;52.030;4.586;2022-11-18T07:48:35;15.18;;;7.28;;
41683;SDS011;27369;52.030;4.586;2022-11-18T07:51:00;8.70;;;5.65;;
41683;SDS011;27369;52.030;4.586;2022-11-18T07:53:28;13.40;;;6.07;;
41683;SDS011;27369;52.030;4.586;2022-11-18T07:55:54;13.32;;;6.65;;
41683;SDS011;27369;52.030;4.586;2022-11-18T07:58:20;9.10;;;5.97;;
41683;SDS011;27369;52.030;4.586;2022-11-18T08:00:45;14.57;;;6.75;;
41683;SDS011;27369;52.030;4.586;2022-11-18T08:03:11;12.07;;;6.40;;
41683;SDS011;27369;52.030;4.586;2022-11-18T08:05:36;10.45;;;5.65;;
41683;SDS011;27369;52.030;4.586;2022-11-18T08:08:01;11.13;;;5.72;;
41683;SDS011;27369;52.030;4.586;2022-11-18T08:10:27;12.32;;;5.97;;
41683;SDS011;27369;52.030;4.586;2022-11-18T08:12:52;14.48;;;5.53;;
41683;SDS011;27369;52.030;4.586;2022-11-18T08:15:18;11.73;;;6.47;;
41683;SDS011;27369;52.030;4.586;2022-11-18T08:17:43;8.93;;;4.60;;
41683;SDS011;27369;52.030;4.586;2022-11-18T08:20:09;12.15;;;4.70;;
41683;SDS011;27369;52.030;4.586;2022-11-18T08:22:34;10.95;;;5.53;;
41683;SDS011;27369;52.030;4.586;2022-11-18T08:25:00;10.48;;;4.68;;
41683;SDS011;27369;52.030;4.586;2022-11-18T08:27:25;8.60;;;4.65;;
41683;SDS011;27369;52.030;4.586;2022-11-18T08:29:51;15.18;;;5.63;;
41683;SDS011;27369;52.030;4.586;2022-11-18T08:32:16;14.02;;;5.30;;
41683;SDS011;27369;52.030;4.586;2022-11-18T08:34:41;13.85;;;5.97;;
41683;SDS011;27369;52.030;4.586;2022-11-18T08:37:07;12.52;;;3.97;;
41683;SDS011;27369;52.030;4.586;2022-11-18T08:39:32;12.90;;;4.67;;
41683;SDS011;27369;52.030;4.586;2022-11-18T08:41:58;12.60;;;4.28;;
41683;SDS011;27369;52.030;4.586;2022-11-18T08:44:23;7.60;;;4.13;;
41683;SDS011;27369;52.030;4.586;2022-11-18T08:46:48;16.65;;;5.07;;
41683;SDS011;27369;52.030;4.586;2022-11-18T08:49:14;8.05;;;3.75;;
41683;SDS011;27369;52.030;4.586;2022-11-18T08:51:39;8.75;;;4.40;;
41683;SDS011;27369;52.030;4.586;2022-11-18T08:54:05;7.88;;;3.63;;
41683;SDS011;27369;52.030;4.586;2022-11-18T08:56:30;12.48;;;4.07;;
41683;SDS011;27369;52.030;4.586;2022-11-18T08:58:56;6.90;;;3.78;;
41683;SDS011;27369;52.030;4.586;2022-11-18T09:01:21;13.57;;;4.43;;
41683;SDS011;27369;52.030;4.586;2022-11-18T09:03:47;11.95;;;3.63;;
41683;SDS011;27369;52.030;4.586;2022-11-18T09:06:14;10.70;;;3.63;;
41683;SDS011;27369;52.030;4.586;2022-11-18T09:08:41;13.00;;;3.70;;
41683;SDS011;27369;52.030;4.586;2022-11-18T09:11:10;7.13;;;2.92;;
41683;SDS011;27369;52.030;4.586;2022-11-18T09:13:38;9.23;;;3.35;;
41683;SDS011;27369;52.030;4.586;2022-11-18T09:16:04;9.43;;;2.95;;
41683;SDS011;27369;52.030;4.586;2022-11-18T09:18:30;6.63;;;3.10;;
41683;SDS011;27369;52.030;4.586;2022-11-18T09:20:56;5.82;;;2.83;;
41683;SDS011;27369;52.030;4.586;2022-11-18T09:23:26;7.97;;;2.40;;
41683;SDS011;27369;52.030;4.586;2022-11-18T09:25:58;10.57;;;2.85;;
41683;SDS011;27369;52.030;4.586;2022-11-18T09:28:31;10.95;;;3.00;;
41683;SDS011;27369;52.030;4.586;2022-11-18T09:30:57;9.25;;;2.55;;
41683;SDS011;27369;52.030;4.586;2022-11-18T09:33:22;7.38;;;2.67;;
41683;SDS011;27369;52.030;4.586;2022-11-18T09:35:48;8.68;;;2.80;;
41683;SDS011;27369;52.030;4.586;2022-11-18T09:38:14;7.88;;;2.30;;
41683;SDS011;27369;52.030;4.586;2022-11-18T09:40:47;9.98;;;2.67;;
41683;SDS011;27369;52.030;4.586;2022-11-18T09:46:00;6.38;;;2.47;;
41683;SDS011;27369;52.030;4.586;2022-11-18T09:48:34;8.65;;;2.20;;
41683;SDS011;27369;52.030;4.586;2022-11-18T09:51:19;7.53;;;2.55;;
41683;SDS011;27369;52.030;4.586;2022-11-18T09:53:49;7.55;;;2.45;;
41683;SDS011;27369;52.030;4.586;2022-11-18T09:56:14;9.13;;;3.15;;
41683;SDS011;27369;52.030;4.586;2022-11-18T09:58:41;8.15;;;2.90;;
41683;SDS011;27369;52.030;4.586;2022-11-18T10:01:12;11.38;;;2.60;;
41683;SDS011;27369;52.030;4.586;2022-11-18T10:03:41;11.63;;;2.70;;
41683;SDS011;27369;52.030;4.586;2022-11-18T10:06:19;8.27;;;2.60;;
41683;SDS011;27369;52.030;4.586;2022-11-18T10:14:53;8.82;;;3.13;;
41683;SDS011;27369;52.030;4.586;2022-11-18T10:23:23;12.57;;;3.33;;
41683;SDS011;27369;52.030;4.586;2022-11-18T10:25:53;8.48;;;3.42;;
41683;SDS011;27369;52.030;4.586;2022-11-18T10:30:47;9.77;;;3.28;;
41683;SDS011;27369;52.030;4.586;2022-11-18T10:33:23;7.57;;;3.28;;
41683;SDS011;27369;52.030;4.586;2022-11-18T10:36:37;10.13;;;3.50;;
41683;SDS011;27369;52.030;4.586;2022-11-18T10:38:40;9.70;;;3.65;;
41683;SDS011;27369;52.030;4.586;2022-11-18T10:48:40;8.67;;;3.40;;
41683;SDS011;27369;52.030;4.586;2022-11-18T10:56:56;12.55;;;4.78;;
41683;SDS011;27369;52.030;4.586;2022-11-18T11:04:40;7.97;;;3.92;;
41683;SDS011;27369;52.030;4.586;2022-11-18T11:12:58;12.32;;;4.57;;
41683;SDS011;27369;52.030;4.586;2022-11-18T11:15:37;12.95;;;4.03;;
41683;SDS011;27369;52.030;4.586;2022-11-18T11:21:13;11.35;;;4.75;;
41683;SDS011;27369;52.030;4.586;2022-11-18T11:23:39;7.70;;;4.15;;
41683;SDS011;27369;52.030;4.586;2022-11-18T11:26:07;7.03;;;3.83;;
41683;SDS011;27369;52.030;4.586;2022-11-18T11:42:09;12.50;;;4.53;;
41683;SDS011;27369;52.030;4.586;2022-11-18T11:58:17;12.35;;;5.18;;
41683;SDS011;27369;52.030;4.586;2022-11-18T12:00:55;11.18;;;6.25;;
41683;SDS011;27369;52.030;4.586;2022-11-18T12:03:45;10.57;;;5.22;;
41683;SDS011;27369;52.030;4.586;2022-11-18T12:06:16;12.98;;;6.03;;
41683;SDS011;27369;52.030;4.586;2022-11-18T12:08:49;10.90;;;5.50;;
41683;SDS011;27369;52.030;4.586;2022-11-18T12:11:40;12.82;;;6.72;;
41683;SDS011;27369;52.030;4.586;2022-11-18T12:14:42;11.70;;;5.88;;
41683;SDS011;27369;52.030;4.586;2022-11-18T12:17:18;15.68;;;6.18;;
41683;SDS011;27369;52.030;4.586;2022-11-18T12:19:51;12.95;;;6.10;;
41683;SDS011;27369;52.030;4.586;2022-11-18T12:22:17;13.57;;;6.43;;
41683;SDS011;27369;52.030;4.586;2022-11-18T12:24:42;13.45;;;7.00;;
41683;SDS011;27369;52.030;4.586;2022-11-18T12:42:55;15.48;;;7.30;;
41683;SDS011;27369;52.030;4.586;2022-11-18T12:53:30;12.75;;;6.55;;
41683;SDS011;27369;52.030;4.586;2022-11-18T12:56:00;14.30;;;7.18;;
41683;SDS011;27369;52.030;4.586;2022-11-18T12:58:47;12.18;;;7.20;;
41683;SDS011;27369;52.030;4.586;2022-11-18T13:01:20;14.52;;;7.32;;
41683;SDS011;27369;52.030;4.586;2022-11-18T13:03:50;14.55;;;7.93;;
41683;SDS011;27369;52.030;4.586;2022-11-18T13:06:27;14.35;;;8.15;;
41683;SDS011;27369;52.030;4.586;2022-11-18T13:08:55;13.10;;;7.18;;
41683;SDS011;27369;52.030;4.586;2022-11-18T13:11:24;15.15;;;8.13;;
41683;SDS011;27369;52.030;4.586;2022-11-18T13:14:51;12.45;;;8.75;;
41683;SDS011;27369;52.030;4.586;2022-11-18T13:17:28;19.38;;;8.65;;
41683;SDS011;27369;52.030;4.586;2022-11-18T13:23:03;15.43;;;7.85;;
41683;SDS011;27369;52.030;4.586;2022-11-18T13:26:11;12.95;;;7.68;;
41683;SDS011;27369;52.030;4.586;2022-11-18T13:31:20;13.27;;;8.00;;
41683;SDS011;27369;52.030;4.586;2022-11-18T13:33:53;11.15;;;6.97;;
41683;SDS011;27369;52.030;4.586;2022-11-18T13:36:20;17.67;;;7.97;;
41683;SDS011;27369;52.030;4.586;2022-11-18T13:38:57;9.77;;;6.50;;
41683;SDS011;27369;52.030;4.586;2022-11-18T13:41:25;13.90;;;7.47;;
41683;SDS011;27369;52.030;4.586;2022-11-18T13:46:48;13.60;;;7.03;;
41683;SDS011;27369;52.030;4.586;2022-11-18T13:49:20;8.68;;;6.50;;
41683;SDS011;27369;52.030;4.586;2022-11-18T13:51:56;12.77;;;6.47;;
41683;SDS011;27369;52.030;4.586;2022-11-18T13:54:23;14.13;;;8.85;;
41683;SDS011;27369;52.030;4.586;2022-11-18T13:56:50;14.48;;;8.15;;
41683;SDS011;27369;52.030;4.586;2022-11-18T13:59:17;9.65;;;7.28;;
41683;SDS011;27369;52.030;4.586;2022-11-18T14:01:45;11.82;;;7.88;;
41683;SDS011;27369;52.030;4.586;2022-11-18T14:04:27;10.85;;;7.93;;
41683;SDS011;27369;52.030;4.586;2022-11-18T14:07:14;13.27;;;7.45;;
41683;SDS011;27369;52.030;4.586;2022-11-18T14:10:00;10.05;;;7.32;;
41683;SDS011;27369;52.030;4.586;2022-11-18T14:12:31;16.25;;;7.95;;
41683;SDS011;27369;52.030;4.586;2022-11-18T14:17:56;17.15;;;8.65;;
41683;SDS011;27369;52.030;4.586;2022-11-18T14:20:27;14.07;;;9.00;;
41683;SDS011;27369;52.030;4.586;2022-11-18T14:22:58;14.02;;;9.18;;
41683;SDS011;27369;52.030;4.586;2022-11-18T14:25:27;12.93;;;8.95;;
41683;SDS011;27369;52.030;4.586;2022-11-18T14:30:35;13.27;;;9.48;;
41683;SDS011;27369;52.030;4.586;2022-11-18T14:35:48;15.35;;;9.70;;
41683;SDS011;27369;52.030;4.586;2022-11-18T14:40:53;14.45;;;9.20;;
41683;SDS011;27369;52.030;4.586;2022-11-18T14:43:20;15.90;;;9.50;;
41683;SDS011;27369;52.030;4.586;2022-11-18T14:45:46;15.75;;;10.82;;
41683;SDS011;27369;52.030;4.586;2022-11-18T14:48:11;15.38;;;9.68;;
41683;SDS011;27369;52.030;4.586;2022-11-18T14:50:39;17.80;;;10.35;;
41683;SDS011;27369;52.030;4.586;2022-11-18T14:53:05;17.23;;;10.55;;
41683;SDS011;27369;52.030;4.586;2022-11-18T14:55:30;19.25;;;10.80;;
41683;SDS011;27369;52.030;4.586;2022-11-18T14:57:56;15.77;;;10.38;;
41683;SDS011;27369;52.030;4.586;2022-11-18T15:00:21;17.48;;;10.48;;
41683;SDS011;27369;52.030;4.586;2022-11-18T15:02:46;21.83;;;10.98;;
41683;SDS011;27369;52.030;4.586;2022-11-18T15:05:12;17.87;;;10.40;;
41683;SDS011;27369;52.030;4.586;2022-11-18T15:07:37;14.30;;;9.90;;
41683;SDS011;27369;52.030;4.586;2022-11-18T15:10:03;15.45;;;10.20;;
41683;SDS011;27369;52.030;4.586;2022-11-18T15:12:28;16.42;;;10.45;;
41683;SDS011;27369;52.030;4.586;2022-11-18T15:14:54;19.05;;;10.65;;
41683;SDS011;27369;52.030;4.586;2022-11-18T15:17:19;18.38;;;11.65;;
41683;SDS011;27369;52.030;4.586;2022-11-18T15:19:45;19.27;;;12.35;;
41683;SDS011;27369;52.030;4.586;2022-11-18T15:22:10;16.58;;;11.75;;
41683;SDS011;27369;52.030;4.586;2022-11-18T15:24:35;21.92;;;12.45;;
41683;SDS011;27369;52.030;4.586;2022-11-18T15:27:01;18.33;;;11.65;;
41683;SDS011;27369;52.030;4.586;2022-11-18T15:29:29;21.10;;;12.60;;
41683;SDS011;27369;52.030;4.586;2022-11-18T15:31:55;22.10;;;12.05;;
41683;SDS011;27369;52.030;4.586;2022-11-18T15:34:20;20.42;;;12.65;;
41683;SDS011;27369;52.030;4.586;2022-11-18T15:39:13;16.60;;;10.83;;
41683;SDS011;27369;52.030;4.586;2022-11-18T15:41:39;17.75;;;11.80;;
41683;SDS011;27369;52.030;4.586;2022-11-18T15:44:07;19.08;;;11.27;;
41683;SDS011;27369;52.030;4.586;2022-11-18T15:46:34;16.83;;;10.85;;
41683;SDS011;27369;52.030;4.586;2022-11-18T15:48:59;14.48;;;10.68;;
41683;SDS011;27369;52.030;4.586;2022-11-18T15:51:26;14.93;;;11.65;;
41683;SDS011;27369;52.030;4.586;2022-11-18T15:53:52;15.52;;;11.77;;
41683;SDS011;27369;52.030;4.586;2022-11-18T16:01:22;16.73;;;11.02;;
41683;SDS011;27369;52.030;4.586;2022-11-18T16:03:49;14.93;;;10.05;;
41683;SDS011;27369;52.030;4.586;2022-11-18T16:06:15;12.30;;;9.98;;
41683;SDS011;27369;52.030;4.586;2022-11-18T16:08:40;16.65;;;11.00;;
41683;SDS011;27369;52.030;4.586;2022-11-18T16:11:05;13.90;;;11.70;;
41683;SDS011;27369;52.030;4.586;2022-11-18T16:13:49;14.27;;;11.82;;
41683;SDS011;27369;52.030;4.586;2022-11-18T16:16:19;15.07;;;11.07;;
41683;SDS011;27369;52.030;4.586;2022-11-18T16:18:52;14.15;;;12.05;;
41683;SDS011;27369;52.030;4.586;2022-11-18T16:21:19;16.00;;;11.23;;
41683;SDS011;27369;52.030;4.586;2022-11-18T16:23:44;14.45;;;11.50;;
41683;SDS011;27369;52.030;4.586;2022-11-18T16:26:10;15.73;;;12.40;;
41683;SDS011;27369;52.030;4.586;2022-11-18T16:28:35;17.98;;;12.45;;
41683;SDS011;27369;52.030;4.586;2022-11-18T16:31:00;14.52;;;11.85;;
41683;SDS011;27369;52.030;4.586;2022-11-18T16:33:44;13.73;;;11.73;;
41683;SDS011;27369;52.030;4.586;2022-11-18T16:36:10;13.40;;;11.75;;
41683;SDS011;27369;52.030;4.586;2022-11-18T16:38:35;16.15;;;12.23;;
41683;SDS011;27369;52.030;4.586;2022-11-18T16:41:00;16.58;;;12.80;;
41683;SDS011;27369;52.030;4.586;2022-11-18T16:43:47;17.02;;;12.70;;
41683;SDS011;27369;52.030;4.586;2022-11-18T16:46:13;15.20;;;12.45;;
41683;SDS011;27369;52.030;4.586;2022-11-18T16:48:38;19.77;;;12.97;;
41683;SDS011;27369;52.030;4.586;2022-11-18T16:51:26;14.90;;;12.43;;
41683;SDS011;27369;52.030;4.586;2022-11-18T16:53:51;17.52;;;12.98;;
41683;SDS011;27369;52.030;4.586;2022-11-18T16:56:22;18.30;;;13.60;;
41683;SDS011;27369;52.030;4.586;2022-11-18T16:58:49;17.00;;;13.95;;
41683;SDS011;27369;52.030;4.586;2022-11-18T17:01:19;19.48;;;14.52;;
41683;SDS011;27369;52.030;4.586;2022-11-18T17:03:44;17.90;;;13.98;;
41683;SDS011;27369;52.030;4.586;2022-11-18T17:06:10;17.95;;;13.65;;
41683;SDS011;27369;52.030;4.586;2022-11-18T17:08:35;18.23;;;13.52;;
41683;SDS011;27369;52.030;4.586;2022-11-18T17:11:05;16.77;;;13.10;;
41683;SDS011;27369;52.030;4.586;2022-11-18T17:13:32;22.65;;;13.38;;
41683;SDS011;27369;52.030;4.586;2022-11-18T17:15:57;21.77;;;14.15;;
41683;SDS011;27369;52.030;4.586;2022-11-18T17:18:22;21.33;;;15.02;;
41683;SDS011;27369;52.030;4.586;2022-11-18T17:20:48;19.15;;;14.05;;
41683;SDS011;27369;52.030;4.586;2022-11-18T17:23:13;19.23;;;14.33;;
41683;SDS011;27369;52.030;4.586;2022-11-18T17:25:39;19.13;;;14.40;;
41683;SDS011;27369;52.030;4.586;2022-11-18T17:28:04;20.10;;;14.43;;
41683;SDS011;27369;52.030;4.586;2022-11-18T17:30:30;20.23;;;15.32;;
41683;SDS011;27369;52.030;4.586;2022-11-18T17:32:55;18.65;;;14.70;;
41683;SDS011;27369;52.030;4.586;2022-11-18T17:35:20;19.73;;;15.40;;